createdAt,value
2018-07-05T00:00:24.306Z,10.40
2018-07-05T00:03:03.195Z,9.63
2018-07-05T00:05:42.070Z,10.37
2018-07-05T00:08:20.979Z,9.80
2018-07-05T00:10:59.925Z,10.70
2018-07-05T00:13:38.885Z,11.17
2018-07-05T00:16:17.795Z,11.27
2018-07-05T00:18:56.613Z,10.37
2018-07-05T00:21:35.468Z,10.57
2018-07-05T00:24:14.556Z,10.40
2018-07-05T00:26:53.461Z,11.43
2018-07-05T00:29:32.411Z,11.50
2018-07-05T00:32:11.192Z,11.70
2018-07-05T00:34:50.200Z,10.23
2018-07-05T00:37:29.196Z,11.93
2018-07-05T00:40:08.126Z,10.67
2018-07-05T00:42:46.949Z,11.17
2018-07-05T00:45:25.846Z,10.90
2018-07-05T00:48:04.831Z,10.60
2018-07-05T00:50:43.811Z,11.20
2018-07-05T00:53:22.783Z,10.20
2018-07-05T00:56:01.719Z,10.27
2018-07-05T00:58:40.704Z,12.03
2018-07-05T01:01:13.719Z,11.70
2018-07-05T01:03:52.657Z,11.80
2018-07-05T01:06:31.609Z,11.53
2018-07-05T01:09:10.608Z,11.10
2018-07-05T01:11:49.583Z,13.07
2018-07-05T01:14:28.617Z,14.07
2018-07-05T01:17:07.696Z,12.63
2018-07-05T01:19:46.601Z,12.03
2018-07-05T01:22:25.560Z,11.87
2018-07-05T01:25:04.536Z,12.23
2018-07-05T01:27:43.411Z,12.03
2018-07-05T01:30:22.377Z,12.10
2018-07-05T01:33:01.377Z,11.63
2018-07-05T01:35:40.241Z,11.57
2018-07-05T01:38:19.172Z,10.97
2018-07-05T01:40:58.229Z,12.87
2018-07-05T01:43:36.993Z,12.73
2018-07-05T01:46:25.662Z,11.90
2018-07-05T01:49:04.418Z,12.10
2018-07-05T01:51:43.341Z,12.63
2018-07-05T01:54:22.195Z,14.63
2018-07-05T01:57:01.346Z,12.67
2018-07-05T01:59:40.396Z,12.67
2018-07-05T02:02:19.284Z,13.80
2018-07-05T02:04:58.114Z,12.20
2018-07-05T02:07:37.058Z,13.97
2018-07-05T02:10:15.852Z,14.20
2018-07-05T02:12:54.752Z,14.40
2018-07-05T02:15:33.615Z,16.20
2018-07-05T02:18:12.522Z,15.70
2018-07-05T02:20:51.360Z,15.30
2018-07-05T02:23:30.265Z,15.67
2018-07-05T02:26:09.238Z,14.37
2018-07-05T02:28:48.236Z,14.60
2018-07-05T02:31:26.956Z,14.83
2018-07-05T02:34:15.641Z,14.13
2018-07-05T02:36:58.034Z,15.47
2018-07-05T02:39:42.578Z,14.47
2018-07-05T02:42:21.504Z,15.70
2018-07-05T02:45:00.301Z,14.47
2018-07-05T02:47:39.284Z,12.90
2018-07-05T02:50:18.101Z,15.03
2018-07-05T02:52:56.907Z,14.50
2018-07-05T02:55:35.707Z,13.90
2018-07-05T02:58:23.085Z,14.20
2018-07-05T03:01:06.182Z,14.23
2018-07-05T03:03:45.030Z,14.87
2018-07-05T03:06:18.270Z,14.23
2018-07-05T03:08:57.057Z,15.80
2018-07-05T03:11:36.108Z,15.40
2018-07-05T03:14:15.041Z,15.27
2018-07-05T03:16:53.989Z,15.67
2018-07-05T03:19:32.955Z,14.87
2018-07-05T03:22:11.850Z,14.33
2018-07-05T03:24:50.732Z,15.50
2018-07-05T03:27:29.710Z,15.70
2018-07-05T03:30:08.586Z,14.37
2018-07-05T03:32:47.513Z,15.37
2018-07-05T03:35:26.488Z,15.33
2018-07-05T03:38:05.473Z,14.83
2018-07-05T03:40:44.345Z,14.17
2018-07-05T03:43:23.255Z,15.27
2018-07-05T03:46:02.203Z,15.90
2018-07-05T03:48:41.088Z,15.33
2018-07-05T03:51:20.034Z,14.30
2018-07-05T03:53:58.944Z,14.47
2018-07-05T03:56:37.902Z,12.50
2018-07-05T03:59:16.935Z,13.80
2018-07-05T04:01:55.799Z,13.50
2018-07-05T04:04:34.735Z,13.60
2018-07-05T04:07:13.763Z,13.40
2018-07-05T04:09:52.619Z,13.77
2018-07-05T04:12:31.560Z,13.40
2018-07-05T04:15:10.536Z,13.47
2018-07-05T04:17:49.503Z,14.33
2018-07-05T04:20:28.420Z,13.43
2018-07-05T04:23:07.259Z,14.00
2018-07-05T04:25:46.219Z,14.40
2018-07-05T04:28:27.462Z,14.97
2018-07-05T04:31:06.245Z,14.30
2018-07-05T04:33:47.174Z,14.90
2018-07-05T04:36:26.098Z,14.97
2018-07-05T04:39:05.023Z,15.00
2018-07-05T04:41:43.952Z,15.27
2018-07-05T04:44:23.041Z,14.43
2018-07-05T04:47:01.969Z,16.57
2018-07-05T04:49:40.862Z,16.23
2018-07-05T04:52:19.749Z,16.70
2018-07-05T04:54:58.827Z,14.70
2018-07-05T04:57:38.006Z,17.23
2018-07-05T05:00:11.192Z,15.83
2018-07-05T05:02:50.329Z,16.90
2018-07-05T05:05:29.274Z,17.97
2018-07-05T05:08:08.178Z,19.40
2018-07-05T05:10:47.149Z,20.80
2018-07-05T05:13:26.052Z,20.17
2018-07-05T05:16:04.982Z,20.20
2018-07-05T05:18:43.985Z,18.83
2018-07-05T05:21:22.974Z,19.70
2018-07-05T05:24:01.943Z,19.90
2018-07-05T05:26:41.671Z,19.57
2018-07-05T05:29:20.604Z,19.10
2018-07-05T05:31:59.693Z,19.43
2018-07-05T05:34:38.536Z,18.50
2018-07-05T05:37:17.440Z,17.30
2018-07-05T05:39:56.557Z,18.70
2018-07-05T05:42:35.488Z,20.53
2018-07-05T05:45:14.568Z,17.03
2018-07-05T05:47:53.299Z,18.47
2018-07-05T05:50:32.239Z,17.43
2018-07-05T05:53:11.244Z,18.40
2018-07-05T05:55:50.143Z,18.53
2018-07-05T05:58:29.042Z,19.43
2018-07-05T06:01:07.891Z,17.97
2018-07-05T06:03:46.946Z,24.33
2018-07-05T06:06:25.837Z,22.90
2018-07-05T06:09:04.961Z,18.57
2018-07-05T06:11:43.793Z,18.40
2018-07-05T06:14:22.739Z,18.33
2018-07-05T06:17:01.625Z,17.10
2018-07-05T06:19:40.521Z,18.00
2018-07-05T06:22:19.543Z,17.00
2018-07-05T06:24:58.505Z,17.00
2018-07-05T06:27:37.537Z,16.83
2018-07-05T06:30:16.425Z,17.70
2018-07-05T06:32:55.346Z,18.53
2018-07-05T06:35:34.327Z,18.40
2018-07-05T06:38:13.266Z,16.70
2018-07-05T06:40:52.224Z,18.60
2018-07-05T06:43:31.170Z,18.80
2018-07-05T06:46:10.154Z,21.20
2018-07-05T06:48:49.242Z,27.37
2018-07-05T06:51:28.069Z,24.00
2018-07-05T06:54:06.997Z,19.57
2018-07-05T06:56:45.915Z,18.87
2018-07-05T06:59:24.672Z,17.70
2018-07-05T07:02:03.743Z,16.70
2018-07-05T07:04:42.691Z,17.70
2018-07-05T07:07:21.686Z,17.73
2018-07-05T07:10:00.756Z,16.47
2018-07-05T07:12:39.675Z,15.20
2018-07-05T07:15:18.618Z,16.60
2018-07-05T07:17:57.616Z,17.00
2018-07-05T07:20:36.621Z,15.30
2018-07-05T07:23:15.750Z,15.67
2018-07-05T07:25:54.682Z,16.20
2018-07-05T07:28:33.623Z,16.27
2018-07-05T07:31:12.594Z,15.93
2018-07-05T07:33:52.615Z,15.90
2018-07-05T07:36:31.507Z,16.23
2018-07-05T07:39:10.515Z,16.10
2018-07-05T07:41:45.745Z,16.43
2018-07-05T07:44:12.277Z,14.73
2018-07-05T07:46:38.751Z,15.07
2018-07-05T07:49:05.580Z,14.30
2018-07-05T07:51:32.530Z,13.43
2018-07-05T07:53:59.116Z,15.20
2018-07-05T07:56:25.628Z,14.40
2018-07-05T07:58:52.155Z,13.90
2018-07-05T08:01:18.655Z,14.33
2018-07-05T08:03:45.243Z,14.90
2018-07-05T08:06:11.828Z,12.37
2018-07-05T08:08:38.296Z,15.10
2018-07-05T08:11:04.854Z,15.10
2018-07-05T08:13:31.342Z,14.77
2018-07-05T08:15:57.900Z,11.60
2018-07-05T08:18:24.401Z,10.67
2018-07-05T08:20:50.869Z,8.63
2018-07-05T08:23:17.373Z,10.17
2018-07-05T08:25:45.019Z,7.63
2018-07-05T08:28:11.713Z,7.20
2018-07-05T08:30:38.228Z,7.10
2018-07-05T08:33:05.166Z,6.50
2018-07-05T08:35:31.635Z,6.70
2018-07-05T08:37:58.153Z,6.70
2018-07-05T08:40:24.799Z,6.87
2018-07-05T08:42:51.320Z,7.33
2018-07-05T08:45:18.368Z,6.17
2018-07-05T08:47:45.191Z,7.10
2018-07-05T08:50:11.689Z,6.60
2018-07-05T08:52:38.216Z,7.90
2018-07-05T08:55:04.737Z,6.60
2018-07-05T08:57:33.749Z,6.97
2018-07-05T09:00:00.246Z,6.87
2018-07-05T09:02:26.743Z,7.30
2018-07-05T09:04:53.291Z,6.87
2018-07-05T09:07:20.040Z,6.77
2018-07-05T09:09:46.538Z,6.93
2018-07-05T09:12:13.092Z,6.60
2018-07-05T09:14:39.736Z,6.77
2018-07-05T09:17:07.323Z,6.40
2018-07-05T09:19:33.858Z,5.77
2018-07-05T09:22:00.468Z,6.20
2018-07-05T09:24:26.965Z,5.90
2018-07-05T09:26:53.503Z,6.00
2018-07-05T09:29:19.993Z,5.97
2018-07-05T09:31:47.210Z,5.40
2018-07-05T09:34:19.544Z,5.60
2018-07-05T09:39:24.628Z,8.33
2018-07-05T09:41:51.715Z,7.53
2018-07-05T09:46:57.808Z,9.80
2018-07-05T09:49:24.300Z,8.50
2018-07-05T09:51:50.830Z,8.53
2018-07-05T09:54:17.317Z,8.23
2018-07-05T09:56:43.791Z,6.67
2018-07-05T09:59:10.295Z,4.17
2018-07-05T10:01:36.758Z,3.83
2018-07-05T10:04:03.238Z,3.50
2018-07-05T10:06:29.742Z,3.03
2018-07-05T10:08:56.237Z,3.60
2018-07-05T10:11:22.738Z,3.73
2018-07-05T10:13:50.133Z,4.07
2018-07-05T10:16:16.213Z,3.73
2018-07-05T10:18:42.732Z,2.67
2018-07-05T10:21:09.318Z,3.00
2018-07-05T10:23:35.769Z,3.17
2018-07-05T10:26:02.242Z,3.00
2018-07-05T10:28:28.749Z,3.60
2018-07-05T10:31:07.568Z,3.20
2018-07-05T10:33:49.615Z,4.17
2018-07-05T10:36:16.177Z,4.20
2018-07-05T10:38:42.784Z,3.53
2018-07-05T10:41:21.570Z,3.53
2018-07-05T10:44:00.503Z,4.07
2018-07-05T10:46:39.510Z,3.90
2018-07-05T10:49:18.231Z,3.53
2018-07-05T10:51:57.261Z,4.30
2018-07-05T10:54:36.155Z,4.17
2018-07-05T10:57:15.115Z,4.17
2018-07-05T10:59:54.106Z,3.83
2018-07-05T11:02:33.164Z,4.70
2018-07-05T11:05:12.000Z,4.50
2018-07-05T11:07:50.865Z,4.20
2018-07-05T11:10:29.741Z,4.70
2018-07-05T11:13:08.559Z,4.60
2018-07-05T11:15:47.479Z,5.60
2018-07-05T11:18:26.359Z,10.10
2018-07-05T11:21:05.309Z,8.90
2018-07-05T11:23:44.270Z,8.77
2018-07-05T11:26:23.161Z,7.50
2018-07-05T11:29:02.011Z,7.23
2018-07-05T11:31:40.835Z,10.57
2018-07-05T11:34:19.863Z,15.17
2018-07-05T11:36:58.729Z,17.50
2018-07-05T11:39:39.551Z,30.33
2018-07-05T11:42:18.368Z,25.17
2018-07-05T11:44:57.513Z,20.93
2018-07-05T11:47:49.283Z,13.00
2018-07-05T11:50:36.016Z,9.00
2018-07-05T11:53:15.014Z,10.50
2018-07-05T11:55:54.381Z,9.93
2018-07-05T11:58:33.333Z,9.10
2018-07-05T12:01:12.836Z,10.47
2018-07-05T12:03:51.768Z,10.67
2018-07-05T12:06:31.770Z,9.80
2018-07-05T12:09:10.937Z,12.00
2018-07-05T12:11:50.447Z,11.97
2018-07-05T12:14:29.365Z,12.70
2018-07-05T12:17:08.986Z,15.17
2018-07-05T12:19:48.057Z,14.37
2018-07-05T12:22:27.061Z,14.87
2018-07-05T12:25:06.071Z,12.37
2018-07-05T12:27:45.068Z,12.20
2018-07-05T12:30:27.791Z,12.60
2018-07-05T12:33:06.646Z,13.57
2018-07-05T12:35:45.657Z,11.00
2018-07-05T12:38:26.413Z,9.80
2018-07-05T12:41:05.438Z,11.43
2018-07-05T12:43:44.363Z,12.27
2018-07-05T12:46:23.323Z,11.33
2018-07-05T12:49:02.251Z,11.53
2018-07-05T12:51:41.161Z,13.13
2018-07-05T12:54:20.255Z,14.37
2018-07-05T12:56:59.326Z,14.53
2018-07-05T12:59:44.495Z,16.07
2018-07-05T13:02:23.427Z,16.07
2018-07-05T13:05:02.435Z,13.93
2018-07-05T13:07:41.369Z,13.00
2018-07-05T13:10:20.358Z,13.50
2018-07-05T13:12:53.544Z,14.70
2018-07-05T13:15:32.343Z,14.97
2018-07-05T13:18:11.355Z,13.70
2018-07-05T13:20:50.242Z,14.00
2018-07-05T13:23:29.303Z,15.00
2018-07-05T13:26:08.319Z,14.07
2018-07-05T13:28:47.244Z,15.30
2018-07-05T13:31:26.429Z,14.57
2018-07-05T13:34:05.279Z,14.70
2018-07-05T13:36:44.089Z,14.83
2018-07-05T13:39:22.990Z,15.23
2018-07-05T13:42:01.894Z,14.20
2018-07-05T13:44:40.786Z,14.10
2018-07-05T13:47:20.662Z,14.23
2018-07-05T13:49:59.504Z,13.03
2018-07-05T13:52:38.312Z,13.07
2018-07-05T13:55:17.338Z,13.07
2018-07-05T13:57:56.252Z,13.27
2018-07-05T14:00:35.074Z,14.37
2018-07-05T14:03:13.996Z,13.27
2018-07-05T14:05:53.706Z,13.97
2018-07-05T14:15:24.040Z,12.40
2018-07-05T14:18:02.971Z,13.40
2018-07-05T14:20:41.865Z,11.63
2018-07-05T14:23:20.898Z,13.37
2018-07-05T14:25:59.677Z,12.53
2018-07-05T14:28:38.732Z,13.00
2018-07-05T14:31:17.804Z,12.67
2018-07-05T14:33:56.520Z,13.10
2018-07-05T14:36:35.523Z,12.97
2018-07-05T14:39:14.463Z,11.80
2018-07-05T14:41:53.351Z,11.10
2018-07-05T14:44:32.287Z,13.50
2018-07-05T14:47:11.038Z,11.73
2018-07-05T14:49:49.968Z,12.87
2018-07-05T14:52:28.805Z,13.93
2018-07-05T14:55:07.862Z,12.27
2018-07-05T14:57:46.820Z,11.77
2018-07-05T15:00:25.856Z,12.47
2018-07-05T15:03:04.759Z,11.73
2018-07-05T15:05:43.787Z,10.57
2018-07-05T15:08:22.575Z,11.10
2018-07-05T15:11:01.636Z,12.67
2018-07-05T15:13:40.474Z,12.07
2018-07-05T15:16:20.334Z,7.03
2018-07-05T15:18:59.626Z,5.23
2018-07-05T15:21:38.568Z,5.30
2018-07-05T15:24:17.447Z,7.20
2018-07-05T15:26:56.540Z,6.50
2018-07-05T15:29:35.545Z,5.87
2018-07-05T15:32:14.433Z,3.90
2018-07-05T15:34:53.221Z,4.40
2018-07-05T15:37:32.128Z,3.90
2018-07-05T15:40:11.054Z,3.43
2018-07-05T15:42:50.164Z,3.90
2018-07-05T15:45:29.094Z,4.07
2018-07-05T15:48:08.124Z,3.57
2018-07-05T15:50:47.055Z,3.67
2018-07-05T15:53:20.986Z,4.60
2018-07-05T15:56:00.576Z,4.20
2018-07-05T15:58:39.339Z,4.43
2018-07-05T16:01:18.436Z,4.40
2018-07-05T16:03:51.477Z,4.53
2018-07-05T16:06:30.333Z,4.10
2018-07-05T16:09:09.273Z,4.93
2018-07-05T16:11:48.971Z,4.57
2018-07-05T16:14:27.773Z,4.70
2018-07-05T16:17:06.671Z,5.03
2018-07-05T16:19:45.575Z,5.47
2018-07-05T16:22:24.458Z,6.17
2018-07-05T16:25:03.292Z,6.47
2018-07-05T16:27:42.136Z,5.70
2018-07-05T16:30:20.954Z,6.30
2018-07-05T16:33:00.069Z,5.70
2018-07-05T16:35:38.876Z,6.77
2018-07-05T16:38:17.956Z,6.90
2018-07-05T16:40:56.893Z,6.73
2018-07-05T16:43:36.035Z,8.07
2018-07-05T16:46:15.017Z,7.40
2018-07-05T16:48:53.945Z,8.37
2018-07-05T16:51:32.757Z,8.13
2018-07-05T16:54:11.706Z,6.40
2018-07-05T16:56:50.926Z,5.10
2018-07-05T16:59:30.176Z,5.07
2018-07-05T17:02:08.998Z,4.83
2018-07-05T17:04:47.828Z,4.77
2018-07-05T17:07:26.739Z,4.57
2018-07-05T17:10:07.446Z,4.30
2018-07-05T17:12:46.386Z,5.47
2018-07-05T17:15:25.336Z,5.20
2018-07-05T17:18:04.322Z,4.80
2018-07-05T17:20:43.163Z,4.90
2018-07-05T17:23:22.631Z,5.33
2018-07-05T17:26:07.306Z,4.30
2018-07-05T17:28:56.981Z,4.70
2018-07-05T17:31:36.440Z,4.77
2018-07-05T17:34:16.667Z,4.33
2018-07-05T17:37:00.999Z,5.00
2018-07-05T17:39:39.840Z,4.60
2018-07-05T17:42:18.813Z,4.10
2018-07-05T17:44:57.666Z,3.80
2018-07-05T17:47:36.586Z,3.83
2018-07-05T17:50:16.012Z,4.03
2018-07-05T17:52:54.838Z,4.17
2018-07-05T17:55:33.711Z,4.50
2018-07-05T17:58:13.859Z,4.37
2018-07-05T18:00:54.046Z,4.30
2018-07-05T18:03:34.134Z,4.50
2018-07-05T18:06:13.106Z,4.07
2018-07-05T18:08:52.472Z,4.03
2018-07-05T18:11:31.272Z,4.47
2018-07-05T18:14:10.678Z,4.63
2018-07-05T18:16:49.574Z,3.93
2018-07-05T18:19:28.813Z,3.97
2018-07-05T18:22:08.716Z,4.47
2018-07-05T18:24:47.577Z,3.97
2018-07-05T18:27:26.558Z,3.87
2018-07-05T18:30:05.373Z,3.40
2018-07-05T18:32:44.271Z,3.43
2018-07-05T18:35:23.229Z,3.33
2018-07-05T18:38:02.167Z,3.57
2018-07-05T18:40:45.146Z,3.87
2018-07-05T18:43:25.467Z,2.90
2018-07-05T18:46:04.471Z,3.30
2018-07-05T18:48:43.529Z,3.03
2018-07-05T18:51:27.873Z,3.20
2018-07-05T18:54:09.188Z,3.20
2018-07-05T18:56:49.083Z,3.63
2018-07-05T18:59:30.107Z,2.63
2018-07-05T19:02:09.106Z,2.70
2018-07-05T19:04:47.904Z,2.70
2018-07-05T19:07:26.866Z,2.67
2018-07-05T19:10:09.375Z,2.80
2018-07-05T19:12:49.231Z,2.30
2018-07-05T19:15:29.656Z,3.20
2018-07-05T19:18:09.671Z,3.13
2018-07-05T19:20:56.214Z,3.37
2018-07-05T19:23:37.336Z,2.80
2018-07-05T19:26:19.827Z,2.47
2018-07-05T19:28:54.544Z,3.20
2018-07-05T19:31:33.583Z,3.20
2018-07-05T19:34:12.415Z,3.20
2018-07-05T19:36:51.287Z,2.70
2018-07-05T19:39:30.119Z,2.37
2018-07-05T19:42:08.894Z,2.93
2018-07-05T19:44:47.785Z,2.80
2018-07-05T19:47:26.648Z,3.00
2018-07-05T19:50:05.430Z,3.00
2018-07-05T19:52:44.360Z,2.50
2018-07-05T19:55:23.242Z,2.83
2018-07-05T19:58:02.119Z,2.70
2018-07-05T20:00:41.020Z,2.77
2018-07-05T20:03:19.871Z,3.00
2018-07-05T20:05:58.631Z,3.13
2018-07-05T20:08:37.604Z,3.27
2018-07-05T20:11:16.497Z,3.20
2018-07-05T20:13:55.472Z,3.33
2018-07-05T20:16:34.298Z,3.83
2018-07-05T20:19:13.177Z,4.10
2018-07-05T20:21:52.120Z,4.50
2018-07-05T20:24:31.003Z,4.33
2018-07-05T20:27:15.889Z,4.73
2018-07-05T20:29:54.957Z,4.43
2018-07-05T20:32:33.908Z,5.20
2018-07-05T20:35:13.071Z,5.47
2018-07-05T20:37:52.254Z,5.27
2018-07-05T20:40:25.461Z,5.03
2018-07-05T20:43:04.441Z,5.53
2018-07-05T20:45:43.346Z,4.60
2018-07-05T20:48:22.210Z,5.00
2018-07-05T20:51:02.322Z,5.60
2018-07-05T20:53:41.510Z,4.70
2018-07-05T20:56:20.451Z,5.00
2018-07-05T20:58:59.462Z,4.70
2018-07-05T21:01:38.440Z,4.23
2018-07-05T21:04:17.441Z,4.70
2018-07-05T21:06:56.635Z,4.63
2018-07-05T21:09:35.671Z,4.67
2018-07-05T21:12:14.789Z,5.20
2018-07-05T21:14:53.821Z,5.17
2018-07-05T21:17:33.117Z,5.50
2018-07-05T21:20:12.250Z,5.73
2018-07-05T21:22:51.461Z,6.00
2018-07-05T21:25:30.563Z,6.07
2018-07-05T21:28:04.434Z,6.17
2018-07-05T21:30:44.371Z,6.60
2018-07-05T21:33:23.885Z,6.53
2018-07-05T21:36:02.994Z,6.97
2018-07-05T21:38:42.102Z,6.67
2018-07-05T21:41:21.272Z,7.43
2018-07-05T21:44:00.251Z,6.77
2018-07-05T21:46:39.880Z,7.53
2018-07-05T21:49:18.895Z,7.70
2018-07-05T21:51:57.974Z,8.00
2018-07-05T21:54:37.352Z,7.60
2018-07-05T21:57:17.111Z,7.37
2018-07-05T21:59:59.653Z,6.87
2018-07-05T22:02:40.092Z,6.90
2018-07-05T22:05:27.190Z,7.43
2018-07-05T22:08:08.676Z,7.10
2018-07-05T22:10:47.851Z,6.30
2018-07-05T22:13:28.238Z,6.60
2018-07-05T22:16:10.176Z,7.13
2018-07-05T22:18:55.022Z,6.90
2018-07-05T22:21:39.012Z,6.60
2018-07-05T22:24:23.755Z,6.33
2018-07-05T22:27:02.841Z,7.70
2018-07-05T22:29:47.578Z,6.27
2018-07-05T22:32:28.848Z,6.30
2018-07-05T22:35:08.389Z,6.87
2018-07-05T22:37:47.591Z,6.67
2018-07-05T22:40:29.477Z,6.60
2018-07-05T22:43:11.044Z,5.50
2018-07-05T22:45:55.318Z,5.83
2018-07-05T22:48:36.308Z,6.40
2018-07-05T22:51:15.506Z,6.33
2018-07-05T22:53:57.300Z,6.67
2018-07-05T22:56:37.933Z,5.33
2018-07-05T22:59:11.671Z,5.43
2018-07-05T23:01:57.936Z,5.07
2018-07-05T23:04:38.564Z,5.73
2018-07-05T23:07:18.116Z,4.50
2018-07-05T23:09:58.401Z,4.30
2018-07-05T23:12:40.864Z,4.53
2018-07-05T23:15:22.289Z,4.70
2018-07-05T23:18:02.905Z,4.90
2018-07-05T23:20:43.711Z,5.80
2018-07-05T23:23:22.824Z,5.90
2018-07-05T23:26:02.044Z,6.67
2018-07-05T23:28:45.347Z,7.50
2018-07-05T23:31:24.750Z,8.53
2018-07-05T23:34:06.593Z,8.67
2018-07-05T23:36:47.959Z,8.20
2018-07-05T23:39:27.245Z,8.70
2018-07-05T23:42:06.596Z,8.70
2018-07-05T23:44:46.247Z,7.70
2018-07-05T23:47:25.516Z,7.20
2018-07-05T23:50:05.736Z,6.67
2018-07-05T23:52:45.728Z,7.30
2018-07-05T23:55:24.814Z,6.43
2018-07-05T23:58:04.074Z,5.53
